Terminal Aerodrome Forecast
Issued by NWS

Home | Current Version | Previous Version | Text Only | Print | Product List | Glossary Off
Versions: 1 2 3 4 5 6 7 8 9 10 11 12 13 14 15 16 17 18 19 20

000
FTUS43 KGRB 260500
TAFCWA
TAF
KCWA 260528Z 2606/2706 13004KT P6SM SCT100 BKN150
     FM260800 13004KT P6SM BKN090 OVC150
     FM261500 18007KT 1SM -SN SCT007 OVC014
     FM262200 15006KT 3SM -SN BR BKN007 OVC012
     FM270200 VRB03KT 3SM -FZDZSN BR OVC003
      AMD LTD TO CLD VIS AND WIND TIL 261200=

USA.gov is the U.S. government's official web portal to all federal, state and local government web resources and services.